Terminal Aerodrome Forecast
Issued by NWS

Home | Current Version | Previous Version | Text Only | Print | Product List | Glossary On
Versions: 1 2 3 4 5 6 7 8 9 10 11 12 13 14 15 16 17 18 19 20 21 22 23
000
FTUS43 KMKX 250204 AAB
TAFENW
TAF AMD
KENW 250204Z 2502/2524 VRB03KT P6SM SCT070 BKN100
     FM250900 00000KT 3SM BR BKN200
     FM251100 00000KT 3SM BR BKN025
     FM251500 14006KT P6SM BKN200
     FM252100 12009KT P6SM SHRA VCTS BKN060CB=

USA.gov is the U.S. government's official web portal to all federal, state and local government web resources and services.